Terminal Aerodrome Forecast
Issued by NWS

Home | Current Version | Previous Version | Text Only | Print | Product List | Glossary On
Versions: 1 2 3 4 5 6 7 8 9 10 11 12 13 14 15 16 17 18 19 20 21 22
000
FTUS46 KPQR 032320
TAFONP
TAF
KONP 032320Z 0400/0424 24005KT 4SM BR SCT025 BKN050
     FM040600 21012G20KT 3SM RA SCT012 OVC025
     FM041200 24010KT 1SM RA BR SCT003 OVC008
     FM041700 31010KT P6SM -SHRA SCT018 BKN025
     FM042200 33006KT P6SM SCT025 BKN035=

USA.gov is the U.S. government's official web portal to all federal, state and local government web resources and services.